KPMD

Palmdale Usaf Plant 42 Airport

Palmdale, California, USA
METAR KPMD 172353Z 09008KT 10SM CLR 23/M06 A3008 RMK AO2 SLP175 T02331061 10244 20178 56016
Observed Flight Rules
Oct-17 @ 23:53 UTC (50 minutes ago) Visual Flight Rules
Wind Visibility Clouds
90° at 8 knots 10 miles
  • Clear skies
Temperatures Readings
Current 23°C / 73°F
Dewpoint -6°C / 21°F
Humidity 14%
Altimeter 30.08" Hg
Pressure 1017.5 hPa
Elevation 780
METAR KPMD 172353Z 09008KT 10SM CLR 23/M06 A3008 RMK AO2 SLP175 T02331061 10244 20178 56016
Observed Flight Rules
Oct-17 @ 23:53 UTC
(50 minutes ago)
VFR
Wind Visibility
90° at 8 knots 10 miles
Clouds
  • Clear skies
Temperature Dewpoint
23°C / 73°F -6°C / 21°F
Humidity Altimeter Pressure
14% 30.08" Hg 1017.5 hPa